Time;durP1;ratioP1;P1;durP2;ratioP2;P2;SDS_P1;SDS_P2;PMS_P1;PMS_P2;Temp;Humidity;BMP_temperature;BMP_pressure;BME280_temperature;BME280_humidity;BME280_pressure;Samples;Min_cycle;Max_cycle;Signal;HPM_P1;HPM_P2
2022/08/05 04:02:05;;;;;;;14.33;10.53;;;18.30;99.90;;;;;;5126844;23;20596;-74
2022/08/05 04:04:33;;;;;;;15.07;11.80;;;18.40;99.90;;;;;;4892482;29;20519;-74
2022/08/05 04:07:01;;;;;;;15.97;12.27;;;18.40;99.90;;;;;;4896616;29;20766;-75
2022/08/05 04:09:29;;;;;;;15.07;9.70;;;18.40;99.90;;;;;;4884749;29;20801;-74
2022/08/05 04:11:56;;;;;;;14.37;11.90;;;18.40;99.90;;;;;;4883970;29;20489;-73
2022/08/05 04:14:24;;;;;;;12.47;11.10;;;18.30;99.90;;;;;;4894888;29;20529;-73
2022/08/05 04:16:50;;;;;;;15.43;12.17;;;18.30;99.90;;;;;;4889870;29;20477;-76
2022/08/05 04:19:19;;;;;;;22.00;12.87;;;18.30;99.90;;;;;;4895824;29;20557;-75
2022/08/05 04:21:46;;;;;;;16.90;10.37;;;18.20;99.90;;;;;;4896086;29;20504;-74
2022/08/05 04:24:13;;;;;;;11.83;9.63;;;18.20;99.90;;;;;;4895653;29;20474;-75
2022/08/05 04:26:39;;;;;;;14.63;10.37;;;18.10;99.90;;;;;;4895684;29;20466;-74
2022/08/05 04:29:06;;;;;;;11.90;10.60;;;18.00;99.90;;;;;;4894388;29;20481;-74
2022/08/05 04:31:33;;;;;;;14.30;11.20;;;18.00;99.90;;;;;;4888133;29;20556;-76
2022/08/05 04:33:59;;;;;;;14.60;10.00;;;18.10;99.90;;;;;;4879756;29;20473;-75
2022/08/05 04:36:27;;;;;;;10.70;9.30;;;18.10;99.90;;;;;;4893682;29;20482;-74
2022/08/05 04:38:54;;;;;;;12.40;9.57;;;18.00;99.90;;;;;;4889783;29;20473;-74
2022/08/05 04:41:21;;;;;;;10.83;9.20;;;18.00;99.90;;;;;;4894355;29;20505;-76
2022/08/05 04:43:48;;;;;;;10.40;8.90;;;18.00;99.90;;;;;;4895500;29;20521;-75
2022/08/05 04:46:14;;;;;;;9.90;8.90;;;18.00;99.90;;;;;;4894241;29;20529;-74
2022/08/05 04:48:41;;;;;;;11.17;8.30;;;18.00;99.90;;;;;;4885809;29;20477;-74
2022/08/05 04:51:08;;;;;;;10.37;9.40;;;17.90;99.90;;;;;;4894747;29;20505;-73
2022/08/05 04:53:36;;;;;;;13.23;9.33;;;17.80;99.90;;;;;;4890151;29;20481;-74
2022/08/05 04:56:03;;;;;;;9.47;7.33;;;17.80;99.90;;;;;;4894962;29;20497;-74
2022/08/05 04:58:30;;;;;;;35.73;8.17;;;17.80;99.90;;;;;;4893753;29;20528;-75
2022/08/05 05:00:57;;;;;;;8.77;7.97;;;17.80;99.90;;;;;;4894053;29;20605;-75
2022/08/05 05:03:23;;;;;;;9.90;8.10;;;17.70;99.90;;;;;;4893789;29;20969;-76
2022/08/05 05:05:50;;;;;;;9.27;7.87;;;17.70;99.90;;;;;;4890240;29;20473;-75
2022/08/05 05:08:17;;;;;;;8.87;7.97;;;17.70;99.90;;;;;;4892421;29;20473;-75
2022/08/05 05:10:46;;;;;;;8.60;7.80;;;17.80;99.90;;;;;;4893681;29;20504;-74
2022/08/05 05:13:15;;;;;;;7.97;7.37;;;17.80;99.90;;;;;;4886780;29;21040;-75
2022/08/05 05:15:44;;;;;;;7.83;7.00;;;17.80;99.90;;;;;;4886133;29;20498;-75
2022/08/05 05:18:13;;;;;;;7.57;7.07;;;17.80;99.90;;;;;;4885401;29;20515;-75
2022/08/05 05:20:42;;;;;;;7.37;6.67;;;17.90;99.90;;;;;;4890553;29;20581;-76
2022/08/05 05:23:09;;;;;;;9.50;7.70;;;17.90;99.90;;;;;;4890799;29;20963;-75
2022/08/05 05:25:36;;;;;;;7.03;6.53;;;17.90;99.90;;;;;;4879791;29;20473;-75
2022/08/05 05:28:04;;;;;;;6.80;6.20;;;17.90;99.90;;;;;;4886025;29;20497;-76
2022/08/05 05:30:31;;;;;;;7.20;6.60;;;17.90;99.90;;;;;;4894856;29;20490;-74
2022/08/05 05:32:58;;;;;;;8.97;8.17;;;17.90;99.90;;;;;;4893643;29;20503;-75
2022/08/05 05:35:25;;;;;;;6.90;6.40;;;17.90;99.90;;;;;;4885751;29;20549;-75
2022/08/05 05:37:53;;;;;;;6.37;5.87;;;17.90;99.90;;;;;;4893299;29;20512;-74
2022/08/05 05:40:23;;;;;;;7.13;6.43;;;17.90;99.90;;;;;;4892654;29;20473;-75
2022/08/05 05:42:50;;;;;;;7.03;6.60;;;17.90;99.90;;;;;;4893390;29;20469;-74
2022/08/05 05:45:19;;;;;;;8.40;5.70;;;17.90;99.90;;;;;;4890762;29;20530;-75
2022/08/05 05:47:46;;;;;;;6.40;6.00;;;17.90;99.90;;;;;;4887575;29;20474;-75
2022/08/05 05:50:15;;;;;;;6.60;6.13;;;17.90;99.90;;;;;;4885818;29;20513;-75
2022/08/05 05:52:43;;;;;;;7.00;6.60;;;17.90;99.90;;;;;;4891030;29;20468;-75
2022/08/05 05:55:11;;;;;;;5.17;4.97;;;17.90;99.90;;;;;;4893566;29;20473;-76
2022/08/05 05:57:40;;;;;;;6.40;5.30;;;17.90;99.90;;;;;;4893441;29;20501;-75
2022/08/05 06:00:09;;;;;;;6.30;5.80;;;17.90;99.90;;;;;;4892675;29;20534;-77
2022/08/05 06:02:37;;;;;;;5.87;5.47;;;17.90;99.90;;;;;;4888882;29;20513;-76
2022/08/05 06:05:04;;;;;;;6.57;5.97;;;18.00;99.90;;;;;;4894192;29;20475;-76
2022/08/05 06:07:31;;;;;;;5.67;5.20;;;18.00;99.90;;;;;;4894349;29;20213;-77
2022/08/05 06:09:57;;;;;;;5.10;4.80;;;18.00;99.90;;;;;;4894849;29;20477;-78
2022/08/05 06:12:24;;;;;;;5.30;5.10;;;18.00;99.90;;;;;;4893858;29;20852;-78
2022/08/05 06:14:51;;;;;;;5.53;5.13;;;18.10;99.90;;;;;;4893674;29;20927;-77
2022/08/05 06:17:18;;;;;;;5.10;4.30;;;18.10;99.90;;;;;;4892461;29;20520;-78
2022/08/05 06:19:46;;;;;;;5.10;4.70;;;18.10;99.90;;;;;;4894884;29;20490;-77
2022/08/05 06:22:12;;;;;;;5.90;5.30;;;18.10;99.90;;;;;;4896138;29;20508;-77
2022/08/05 06:24:42;;;;;;;6.00;5.70;;;18.20;99.90;;;;;;4897771;29;20958;-77
2022/08/05 06:27:09;;;;;;;6.60;6.10;;;18.10;99.90;;;;;;4897736;29;20544;-76
2022/08/05 06:29:35;;;;;;;5.77;5.17;;;18.10;99.90;;;;;;4897459;29;20483;-76
2022/08/05 06:32:02;;;;;;;5.53;5.20;;;18.20;99.90;;;;;;4896549;29;20577;-75
2022/08/05 06:34:29;;;;;;;5.00;4.70;;;18.20;99.90;;;;;;4893151;29;20578;-76
2022/08/05 06:36:57;;;;;;;4.90;4.60;;;18.20;99.90;;;;;;4892080;29;20511;-75
2022/08/05 06:39:24;;;;;;;5.43;5.13;;;18.30;99.90;;;;;;4897558;29;20470;-75
2022/08/05 06:41:50;;;;;;;4.77;4.50;;;18.40;99.90;;;;;;4894679;29;20501;-76
2022/08/05 06:44:17;;;;;;;5.67;5.30;;;18.40;99.90;;;;;;4888069;29;20983;-76
2022/08/05 06:46:44;;;;;;;4.90;4.57;;;18.50;99.90;;;;;;4898051;29;20462;-76
2022/08/05 06:49:10;;;;;;;5.53;4.97;;;18.50;99.90;;;;;;4897428;29;20470;-76
2022/08/05 06:51:37;;;;;;;5.50;4.90;;;18.80;99.90;;;;;;4897761;29;20497;-75
2022/08/05 06:54:05;;;;;;;5.47;4.90;;;19.00;99.90;;;;;;4896795;29;20967;-76
2022/08/05 06:56:32;;;;;;;4.53;4.33;;;19.10;99.90;;;;;;4889184;29;20523;-76
2022/08/05 06:58:59;;;;;;;4.27;4.07;;;19.40;99.90;;;;;;4892516;29;20479;-75
2022/08/05 07:01:26;;;;;;;6.67;5.80;;;19.70;99.90;;;;;;4896859;29;20502;-76
2022/08/05 07:03:53;;;;;;;7.97;4.30;;;20.30;99.90;;;;;;4887869;29;21069;-77
2022/08/05 07:06:20;;;;;;;4.90;4.50;;;20.40;99.90;;;;;;4897051;29;20468;-77
2022/08/05 07:08:46;;;;;;;6.10;4.20;;;20.40;99.90;;;;;;4888496;29;20869;-77
2022/08/05 07:11:14;;;;;;;5.50;4.93;;;20.40;99.90;;;;;;4897618;29;20496;-77
2022/08/05 07:19:10;;;;;;;5.43;5.00;;;19.90;99.90;;;;;;4896557;29;20465;-77
2022/08/05 07:21:37;;;;;;;5.97;4.90;;;20.00;99.90;;;;;;4897533;29;20895;-78
2022/08/05 07:24:04;;;;;;;4.33;4.23;;;19.90;99.90;;;;;;4899383;29;20470;-77
2022/08/05 07:26:32;;;;;;;4.77;4.47;;;19.90;99.90;;;;;;4896390;29;20886;-78
2022/08/05 07:28:59;;;;;;;4.90;4.50;;;19.90;99.90;;;;;;4896835;29;20477;-76
2022/08/05 07:31:26;;;;;;;4.77;4.40;;;19.80;99.90;;;;;;4894737;29;20521;-77
2022/08/05 07:33:52;;;;;;;8.80;4.90;;;19.70;99.90;;;;;;4896298;29;20473;-77
2022/08/05 07:36:19;;;;;;;5.37;5.07;;;19.60;99.90;;;;;;4892140;29;20969;-77
2022/08/05 07:38:46;;;;;;;5.13;4.80;;;19.50;99.90;;;;;;4896239;29;20816;-77
2022/08/05 07:41:16;;;;;;;5.77;5.23;;;19.40;99.90;;;;;;4895107;29;20502;-76
2022/08/05 07:43:44;;;;;;;4.80;4.40;;;19.30;99.90;;;;;;4891170;29;20915;-76
2022/08/05 07:46:11;;;;;;;8.30;5.70;;;19.30;99.90;;;;;;4895065;29;20993;-75
2022/08/05 07:48:39;;;;;;;6.30;5.80;;;19.30;99.90;;;;;;4896228;29;20844;-77
2022/08/05 07:51:06;;;;;;;6.30;5.80;;;19.20;99.90;;;;;;4895946;29;20495;-76
2022/08/05 07:53:32;;;;;;;5.60;5.20;;;19.20;99.90;;;;;;4896176;29;20820;-77
2022/08/05 07:55:59;;;;;;;7.30;6.40;;;19.10;99.90;;;;;;4894846;29;20537;-76
2022/08/05 07:58:26;;;;;;;6.63;6.07;;;19.00;99.90;;;;;;4892981;29;20497;-75
2022/08/05 08:00:54;;;;;;;6.37;5.97;;;18.90;99.90;;;;;;4895052;29;20509;-77
2022/08/05 08:03:20;;;;;;;6.77;6.27;;;18.80;99.90;;;;;;4894693;29;20565;-76
2022/08/05 08:05:49;;;;;;;6.97;6.30;;;18.90;99.90;;;;;;4894305;29;20883;-77
2022/08/05 08:08:16;;;;;;;6.70;6.03;;;18.90;99.90;;;;;;4894052;29;20522;-77
2022/08/05 08:10:43;;;;;;;8.87;7.40;;;18.80;99.90;;;;;;4895902;29;20485;-75
2022/08/05 08:13:10;;;;;;;9.10;7.30;;;18.70;99.90;;;;;;4894664;29;20477;-74
2022/08/05 08:15:37;;;;;;;9.27;8.47;;;18.60;99.90;;;;;;4883269;29;20958;-75
2022/08/05 08:18:05;;;;;;;8.50;7.70;;;18.60;99.90;;;;;;4890645;29;21047;-76
2022/08/05 08:20:32;;;;;;;8.47;7.77;;;18.60;99.90;;;;;;4890639;29;20500;-74
2022/08/05 08:23:01;;;;;;;9.40;7.60;;;18.50;99.90;;;;;;4893630;29;20471;-74
2022/08/05 08:25:28;;;;;;;8.57;7.90;;;18.40;99.90;;;;;;4893292;29;20944;-73
2022/08/05 08:27:55;;;;;;;8.20;7.50;;;18.40;99.90;;;;;;4894979;29;20462;-75
2022/08/05 08:30:22;;;;;;;8.73;8.03;;;18.30;99.90;;;;;;4894606;29;20476;-74
2022/08/05 08:32:48;;;;;;;8.20;7.20;;;18.30;99.90;;;;;;4893885;29;20474;-76
2022/08/05 08:35:17;;;;;;;9.03;8.13;;;18.30;99.90;;;;;;4891902;29;20485;-75
2022/08/05 08:37:43;;;;;;;8.33;7.63;;;18.30;99.90;;;;;;4893810;29;20497;-73
2022/08/05 08:40:11;;;;;;;9.80;7.90;;;18.20;99.90;;;;;;4892796;29;20556;-75
2022/08/05 08:42:38;;;;;;;11.43;8.50;;;18.20;99.90;;;;;;4893466;29;20576;-74
2022/08/05 08:45:07;;;;;;;8.50;7.87;;;18.20;99.90;;;;;;4894385;29;20478;-76
2022/08/05 08:47:34;;;;;;;8.67;7.97;;;18.10;99.90;;;;;;4891294;29;20509;-75
2022/08/05 08:50:03;;;;;;;12.23;8.67;;;18.20;99.90;;;;;;4895313;29;20537;-74
2022/08/05 08:52:33;;;;;;;10.20;8.93;;;18.10;99.90;;;;;;4891991;29;20497;-74
2022/08/05 08:55:00;;;;;;;9.90;9.00;;;18.10;99.90;;;;;;4892568;29;20521;-75
2022/08/05 08:57:27;;;;;;;10.10;9.30;;;18.20;99.90;;;;;;4893803;29;20489;-74
2022/08/05 08:59:54;;;;;;;9.27;8.27;;;18.20;99.90;;;;;;4894395;29;20465;-77
2022/08/05 09:02:21;;;;;;;9.73;8.27;;;18.20;99.90;;;;;;4894265;29;20497;-75
2022/08/05 09:04:48;;;;;;;9.67;8.77;;;18.00;99.90;;;;;;4890889;29;20482;-75
2022/08/05 09:07:15;;;;;;;10.27;9.37;;;18.00;99.90;;;;;;4891323;29;20588;-76
2022/08/05 09:09:43;;;;;;;9.60;8.70;;;18.00;99.90;;;;;;4891927;29;20521;-75
2022/08/05 09:12:10;;;;;;;10.97;9.87;;;18.10;99.90;;;;;;4891301;29;20494;-74
2022/08/05 09:14:38;;;;;;;9.67;8.67;;;18.10;99.90;;;;;;4893815;29;20821;-72
2022/08/05 09:17:07;;;;;;;12.97;8.20;;;18.10;99.90;;;;;;4893310;29;20553;-73
2022/08/05 09:19:34;;;;;;;9.30;8.30;;;18.10;99.90;;;;;;4893225;29;20958;-74
2022/08/05 09:22:00;;;;;;;9.67;8.97;;;18.10;99.90;;;;;;4892856;29;20512;-75
2022/08/05 09:24:27;;;;;;;9.33;8.60;;;18.20;99.90;;;;;;4886485;29;20530;-74
2022/08/05 09:26:57;;;;;;;8.63;7.93;;;18.30;99.90;;;;;;4892378;29;20472;-72
2022/08/05 09:29:38;;;;;;;8.80;8.00;;;18.30;99.90;;;;;;4893786;29;20851;-75
2022/08/05 09:32:07;;;;;;;8.90;8.20;;;18.30;99.90;;;;;;4891247;29;20628;-74
2022/08/05 09:34:47;;;;;;;9.10;8.30;;;18.30;99.90;;;;;;4892789;29;20508;-77
2022/08/05 09:37:18;;;;;;;9.30;8.43;;;18.30;99.90;;;;;;4890198;29;20484;-75
2022/08/05 09:39:45;;;;;;;8.33;7.83;;;18.30;99.90;;;;;;4894349;29;20534;-75
2022/08/05 09:42:15;;;;;;;9.60;8.87;;;18.30;99.90;;;;;;4893899;29;20868;-75
2022/08/05 09:44:43;;;;;;;10.07;9.20;;;18.40;99.90;;;;;;4886337;29;20530;-74
2022/08/05 09:47:13;;;;;;;6.70;6.30;;;18.40;99.90;;;;;;4893430;29;20466;-74
2022/08/05 09:49:45;;;;;;;6.80;6.30;;;18.40;99.90;;;;;;4894705;29;20472;-74
2022/08/05 09:52:24;;;;;;;6.47;6.07;;;18.50;99.90;;;;;;4892844;29;20994;-75
2022/08/05 09:54:56;;;;;;;5.70;5.03;;;18.50;99.90;;;;;;4892548;29;20466;-74
2022/08/05 09:57:32;;;;;;;5.97;5.50;;;18.50;99.90;;;;;;4895296;29;20493;-74
2022/08/05 10:00:00;;;;;;;7.33;6.83;;;18.50;99.90;;;;;;4898438;29;20532;-75
2022/08/05 10:02:34;;;;;;;6.67;6.17;;;18.60;99.90;;;;;;4896840;29;21101;-74
2022/08/05 10:05:11;;;;;;;5.47;5.07;;;18.60;99.90;;;;;;4895845;29;22115;-75
2022/08/05 10:07:52;;;;;;;6.10;5.53;;;18.60;99.90;;;;;;4897581;29;20839;-75
2022/08/05 10:10:21;;;;;;;3.77;3.57;;;18.70;99.90;;;;;;4897409;29;20576;-74
2022/08/05 10:12:52;;;;;;;4.17;4.00;;;18.70;99.90;;;;;;4897315;29;20501;-74
2022/08/05 10:15:22;;;;;;;4.13;3.93;;;18.70;99.90;;;;;;4896241;29;20915;-74
2022/08/05 10:18:14;;;;;;;3.70;3.60;;;18.80;99.90;;;;;;4897457;29;20580;-74
2022/08/05 10:20:43;;;;;;;4.00;3.90;;;18.80;99.90;;;;;;4879722;29;20489;-74
2022/08/05 10:23:13;;;;;;;4.10;3.80;;;18.80;99.90;;;;;;4895532;29;20473;-75
2022/08/05 10:25:40;;;;;;;4.80;4.53;;;18.80;99.90;;;;;;4890018;29;20474;-74
2022/08/05 10:28:08;;;;;;;4.07;3.87;;;18.80;99.90;;;;;;4896289;29;22417;-75
2022/08/05 10:30:35;;;;;;;4.97;4.57;;;18.80;99.90;;;;;;4897393;29;20552;-75
2022/08/05 10:33:04;;;;;;;4.53;4.33;;;18.90;99.90;;;;;;4894277;29;20477;-75
2022/08/05 10:35:31;;;;;;;5.30;5.10;;;18.90;99.90;;;;;;4896339;29;21002;-74
2022/08/05 10:38:00;;;;;;;4.77;4.57;;;18.80;99.90;;;;;;4896195;29;20490;-75
2022/08/05 10:40:33;;;;;;;5.80;5.30;;;18.80;99.90;;;;;;4896441;29;20569;-74
2022/08/05 10:43:07;;;;;;;5.30;5.03;;;18.80;99.90;;;;;;4892057;29;20474;-74
2022/08/05 10:45:35;;;;;;;5.17;4.67;;;18.80;99.90;;;;;;4892609;29;20485;-75
2022/08/05 10:48:30;;;;;;;6.10;5.80;;;18.70;99.90;;;;;;4894013;29;20474;-74
2022/08/05 10:50:59;;;;;;;6.10;5.70;;;18.80;99.90;;;;;;4892198;29;20585;-73
2022/08/05 10:53:37;;;;;;;7.33;6.27;;;18.70;99.90;;;;;;4896208;29;20501;-73
2022/08/05 10:56:06;;;;;;;6.60;6.03;;;18.80;99.90;;;;;;4894148;29;20508;-73
2022/08/05 10:58:33;;;;;;;8.27;7.67;;;18.90;99.90;;;;;;4895147;29;20500;-76
2022/08/05 11:01:04;;;;;;;8.03;7.43;;;19.00;99.90;;;;;;4895251;29;20514;-74
2022/08/05 11:03:31;;;;;;;7.27;6.67;;;19.10;99.90;;;;;;4896066;29;20857;-75
2022/08/05 11:06:07;;;;;;;7.93;7.20;;;19.10;99.90;;;;;;4894091;29;20471;-75
2022/08/05 11:08:34;;;;;;;6.77;6.27;;;19.20;99.90;;;;;;4896209;29;20472;-74
2022/08/05 11:11:32;;;;;;;7.73;7.10;;;19.20;99.90;;;;;;4897357;29;20486;-76
2022/08/05 11:14:00;;;;;;;8.17;7.57;;;19.30;99.90;;;;;;4897490;29;20522;-77
2022/08/05 11:16:29;;;;;;;6.97;6.53;;;19.30;99.90;;;;;;4893705;29;20532;-76
2022/08/05 11:19:24;;;;;;;7.13;6.63;;;19.30;99.90;;;;;;4896678;29;20549;-75
2022/08/05 11:21:50;;;;;;;9.50;8.20;;;19.30;99.90;;;;;;4896428;29;20566;-74
2022/08/05 11:24:18;;;;;;;9.03;8.20;;;19.30;99.90;;;;;;4890610;29;20466;-75
2022/08/05 11:26:45;;;;;;;8.80;8.30;;;19.20;99.90;;;;;;4891944;29;20824;-75
2022/08/05 11:29:35;;;;;;;9.50;8.60;;;19.00;99.90;;;;;;4890430;29;20602;-76
2022/08/05 11:32:25;;;;;;;9.97;9.17;;;18.90;99.90;;;;;;4892234;29;20571;-75
2022/08/05 11:34:52;;;;;;;8.73;8.03;;;18.80;99.90;;;;;;4894595;29;20556;-76
2022/08/05 11:38:06;;;;;;;9.30;8.50;;;18.80;99.90;;;;;;4895431;29;20486;-75
2022/08/05 11:40:58;;;;;;;8.03;7.33;;;18.80;99.90;;;;;;4888322;29;20272;-74
2022/08/05 11:43:25;;;;;;;9.37;7.43;;;18.70;99.90;;;;;;4897117;29;20467;-75
2022/08/05 11:45:51;;;;;;;7.10;6.60;;;18.50;99.90;;;;;;4895545;29;20561;-75
2022/08/05 11:48:20;;;;;;;8.07;7.27;;;18.50;99.90;;;;;;4896424;29;20469;-75
2022/08/05 11:50:47;;;;;;;8.07;7.43;;;18.30;99.90;;;;;;4896257;29;20500;-76
2022/08/05 11:53:14;;;;;;;7.40;6.97;;;18.30;99.90;;;;;;4896083;29;20552;-75
2022/08/05 11:55:53;;;;;;;6.83;6.33;;;18.30;99.90;;;;;;4891467;29;20474;-75
2022/08/05 11:58:27;;;;;;;9.73;6.67;;;18.30;99.90;;;;;;4893875;29;20572;-74
2022/08/05 12:01:01;;;;;;;7.97;7.10;;;18.30;99.90;;;;;;4896602;29;20525;-75
2022/08/05 12:03:29;;;;;;;8.70;7.93;;;18.30;99.90;;;;;;4896389;29;20479;-75
2022/08/05 12:06:02;;;;;;;7.80;7.20;;;18.20;99.90;;;;;;4895311;29;20533;-75
2022/08/05 12:08:28;;;;;;;8.70;8.10;;;18.10;99.90;;;;;;4895517;29;20466;-78
2022/08/05 12:10:59;;;;;;;9.00;7.87;;;18.10;99.90;;;;;;4895805;29;20977;-76
2022/08/05 12:13:25;;;;;;;9.80;8.83;;;18.10;99.90;;;;;;4896286;29;20950;-76
2022/08/05 12:15:52;;;;;;;11.40;8.83;;;18.00;99.90;;;;;;4894868;29;20474;-76
2022/08/05 12:18:19;;;;;;;9.43;8.73;;;18.00;99.90;;;;;;4896169;29;20493;-75
2022/08/05 12:20:47;;;;;;;10.13;7.80;;;18.00;99.90;;;;;;4895145;29;20486;-75
2022/08/05 12:23:14;;;;;;;9.77;8.80;;;18.00;99.90;;;;;;4894761;29;20478;-75
2022/08/05 12:25:52;;;;;;;8.40;7.70;;;18.10;99.90;;;;;;4893795;29;20478;-75
2022/08/05 12:28:37;;;;;;;8.50;7.90;;;18.00;99.90;;;;;;4891600;29;20510;-74
2022/08/05 12:31:04;;;;;;;9.73;8.73;;;18.00;99.90;;;;;;4894166;29;20867;-74
2022/08/05 12:33:32;;;;;;;8.27;7.67;;;18.00;99.90;;;;;;4894630;29;20604;-75
2022/08/05 12:36:01;;;;;;;10.43;9.00;;;18.00;99.90;;;;;;4892080;29;20470;-75
2022/08/05 12:38:28;;;;;;;8.93;8.13;;;18.10;99.90;;;;;;4895144;29;20490;-75
2022/08/05 12:40:56;;;;;;;8.83;8.03;;;18.10;99.90;;;;;;4894478;29;20504;-75
2022/08/05 12:43:23;;;;;;;9.27;8.33;;;18.20;99.90;;;;;;4890329;29;20541;-75
2022/08/05 12:45:53;;;;;;;7.37;6.97;;;18.20;99.90;;;;;;4890056;29;20474;-77
2022/08/05 12:48:21;;;;;;;9.00;8.40;;;18.20;99.90;;;;;;4893932;29;20482;-75
2022/08/05 12:51:11;;;;;;;7.50;7.00;;;18.20;99.90;;;;;;4891540;29;20498;-76
2022/08/05 12:53:42;;;;;;;9.67;8.83;;;18.30;99.90;;;;;;4894447;29;20488;-75
2022/08/05 12:56:22;;;;;;;7.90;7.40;;;18.10;99.90;;;;;;4891368;29;20848;-75
2022/08/05 12:59:13;;;;;;;9.57;8.77;;;18.20;99.90;;;;;;4892901;29;20577;-75
2022/08/05 13:01:40;;;;;;;9.07;8.03;;;18.30;99.90;;;;;;4892576;29;20530;-76
2022/08/05 13:04:07;;;;;;;8.47;7.97;;;18.30;99.90;;;;;;4887464;29;20486;-75
2022/08/05 13:06:40;;;;;;;7.90;7.40;;;18.20;99.90;;;;;;4891051;29;20545;-75
2022/08/05 13:09:08;;;;;;;9.33;8.37;;;18.20;99.90;;;;;;4894326;29;20510;-75
2022/08/05 13:11:39;;;;;;;8.17;7.60;;;18.30;99.90;;;;;;4893462;29;20601;-75
2022/08/05 13:14:20;;;;;;;7.87;7.37;;;18.30;99.90;;;;;;4894918;29;20552;-74
2022/08/05 13:16:53;;;;;;;7.83;7.23;;;18.30;99.90;;;;;;4892091;29;20478;-76
2022/08/05 13:19:22;;;;;;;7.93;7.13;;;18.30;99.90;;;;;;4893469;29;20493;-73
2022/08/05 13:21:50;;;;;;;6.50;6.20;;;18.30;99.90;;;;;;4891368;29;20577;-74
2022/08/05 13:24:18;;;;;;;8.77;8.07;;;18.30;99.90;;;;;;4893540;29;20514;-74
2022/08/05 13:26:45;;;;;;;8.30;7.90;;;18.30;99.90;;;;;;4890748;29;20931;-74
2022/08/05 13:29:12;;;;;;;7.80;7.33;;;18.30;99.90;;;;;;4890954;29;21009;-74
2022/08/05 13:31:39;;;;;;;9.03;8.43;;;18.30;99.90;;;;;;4894867;29;20545;-75
2022/08/05 13:34:07;;;;;;;9.00;7.70;;;18.50;99.90;;;;;;4898343;29;20782;-74
2022/08/05 13:36:34;;;;;;;7.73;7.27;;;18.60;99.90;;;;;;4895522;29;20900;-73
2022/08/05 13:39:02;;;;;;;7.37;6.80;;;18.60;99.90;;;;;;4897516;29;20505;-74
2022/08/05 13:41:29;;;;;;;7.00;6.53;;;18.60;99.90;;;;;;4896906;29;20506;-74
2022/08/05 13:43:56;;;;;;;7.90;7.40;;;18.70;99.90;;;;;;4898598;29;20478;-74
2022/08/05 13:46:24;;;;;;;6.40;6.00;;;18.80;99.90;;;;;;4896356;29;20474;-76
2022/08/05 13:48:50;;;;;;;7.63;7.23;;;19.00;99.90;;;;;;4895362;29;20495;-73
2022/08/05 13:51:27;;;;;;;7.20;6.80;;;19.10;99.90;;;;;;4895331;29;20821;-75
2022/08/05 13:53:53;;;;;;;6.50;6.10;;;19.20;99.90;;;;;;4895760;29;20565;-74
2022/08/05 13:56:22;;;;;;;5.77;5.57;;;19.30;99.90;;;;;;4896696;29;20528;-76
2022/08/05 13:58:49;;;;;;;5.47;5.17;;;19.40;99.90;;;;;;4896135;29;20587;-73
2022/08/05 14:01:15;;;;;;;6.60;6.20;;;19.50;99.90;;;;;;4896491;29;20510;-74
2022/08/05 14:03:42;;;;;;;5.30;5.10;;;19.70;99.90;;;;;;4895324;29;20476;-73
2022/08/05 14:06:08;;;;;;;5.20;4.90;;;19.90;99.90;;;;;;4895890;29;20575;-73
2022/08/05 14:08:34;;;;;;;4.33;4.17;;;19.80;99.90;;;;;;4895801;29;20565;-74
2022/08/05 14:11:01;;;;;;;5.20;4.97;;;20.00;99.90;;;;;;4895769;29;20242;-74
2022/08/05 14:13:29;;;;;;;4.00;3.90;;;20.10;99.90;;;;;;4897186;29;20472;-74
2022/08/05 14:15:55;;;;;;;4.03;3.80;;;20.10;99.90;;;;;;4896908;29;20573;-74
2022/08/05 14:18:22;;;;;;;5.20;4.90;;;20.10;99.90;;;;;;4896466;29;20498;-73
2022/08/05 14:20:49;;;;;;;4.77;4.67;;;20.20;99.90;;;;;;4895912;29;20511;-75
2022/08/05 14:23:16;;;;;;;4.57;4.47;;;20.20;99.90;;;;;;4896637;29;20472;-74
2022/08/05 14:25:43;;;;;;;5.17;4.90;;;20.20;99.90;;;;;;4893962;29;20479;-73
2022/08/05 14:28:09;;;;;;;4.00;3.90;;;20.20;99.90;;;;;;4897302;29;20478;-74
2022/08/05 14:30:37;;;;;;;4.33;4.23;;;20.10;99.90;;;;;;4895278;29;21035;-74
2022/08/05 14:33:04;;;;;;;4.50;4.27;;;20.20;99.90;;;;;;4897006;29;20497;-74
2022/08/05 14:35:31;;;;;;;4.40;4.20;;;20.20;99.90;;;;;;4891662;29;20477;-74
2022/08/05 14:37:58;;;;;;;4.13;4.03;;;20.40;99.90;;;;;;4891457;29;20551;-75
2022/08/05 14:40:24;;;;;;;4.50;4.40;;;20.50;99.90;;;;;;4894554;29;20548;-75
2022/08/05 14:42:51;;;;;;;4.57;4.37;;;20.50;99.90;;;;;;4895047;29;20476;-74
2022/08/05 14:45:18;;;;;;;4.20;3.93;;;20.50;99.90;;;;;;4897412;29;20468;-73
2022/08/05 14:47:46;;;;;;;4.27;3.90;;;20.60;99.90;;;;;;4894577;29;20571;-74
2022/08/05 14:50:13;;;;;;;3.73;3.63;;;20.60;99.90;;;;;;4896262;29;20651;-75
2022/08/05 14:52:39;;;;;;;3.53;3.43;;;20.60;99.90;;;;;;4893780;29;20491;-73
2022/08/05 14:55:07;;;;;;;3.77;3.67;;;20.70;99.90;;;;;;4892105;29;20596;-72
2022/08/05 14:57:34;;;;;;;2.93;2.93;;;20.70;99.90;;;;;;4893709;29;20464;-72
2022/08/05 15:00:00;;;;;;;3.30;3.20;;;20.70;99.90;;;;;;4886945;29;20526;-73
2022/08/05 15:02:27;;;;;;;3.77;3.50;;;20.70;99.90;;;;;;4886174;29;20514;-74
2022/08/05 15:04:55;;;;;;;3.23;3.23;;;20.70;99.90;;;;;;4892831;29;20540;-73
2022/08/05 15:07:22;;;;;;;3.83;3.73;;;20.80;99.90;;;;;;4892408;29;20476;-75
2022/08/05 15:09:48;;;;;;;3.47;3.20;;;20.90;99.90;;;;;;4895580;29;20878;-73
2022/08/05 15:12:15;;;;;;;3.40;3.30;;;21.10;99.90;;;;;;4895676;29;20500;-73
2022/08/05 15:14:42;;;;;;;3.07;3.07;;;21.20;99.90;;;;;;4887724;29;20476;-74
2022/08/05 15:17:08;;;;;;;4.03;3.83;;;21.30;99.90;;;;;;4892806;29;20944;-73
2022/08/05 15:19:35;;;;;;;3.20;3.20;;;21.40;99.90;;;;;;4895015;29;20515;-75
2022/08/05 15:22:03;;;;;;;3.60;3.40;;;21.30;99.90;;;;;;4893851;29;20498;-73
2022/08/05 15:24:30;;;;;;;3.47;3.47;;;21.30;99.90;;;;;;4895603;29;20468;-73
2022/08/05 15:26:57;;;;;;;3.40;3.13;;;21.20;99.90;;;;;;4894157;29;20477;-73
2022/08/05 15:29:23;;;;;;;3.30;3.20;;;21.20;99.90;;;;;;4896026;29;20545;-74
2022/08/05 15:31:50;;;;;;;2.90;2.90;;;21.10;99.90;;;;;;4893434;29;20990;-73
2022/08/05 15:34:17;;;;;;;3.57;3.20;;;21.20;99.90;;;;;;4892914;29;20978;-73
2022/08/05 15:36:43;;;;;;;3.30;3.20;;;21.20;99.90;;;;;;4894869;29;20478;-73
2022/08/05 15:39:11;;;;;;;3.50;3.40;;;21.20;99.90;;;;;;4893637;29;21001;-74
2022/08/05 15:41:38;;;;;;;2.87;2.87;;;21.30;99.90;;;;;;4893756;29;20744;-74
2022/08/05 15:44:05;;;;;;;3.10;3.10;;;21.20;99.90;;;;;;4889943;29;20808;-73
2022/08/05 15:46:32;;;;;;;4.50;4.20;;;21.20;99.90;;;;;;4894586;29;20496;-77
2022/08/05 15:48:59;;;;;;;3.73;3.60;;;21.10;99.90;;;;;;4891142;29;20486;-74
2022/08/05 15:51:26;;;;;;;3.23;3.13;;;21.00;99.90;;;;;;4895102;29;20551;-74
2022/08/05 15:53:52;;;;;;;4.10;3.77;;;21.00;99.90;;;;;;4892985;29;20480;-74
2022/08/05 15:56:21;;;;;;;3.60;3.50;;;21.10;99.90;;;;;;4895152;29;20831;-74
2022/08/05 15:58:48;;;;;;;3.80;3.60;;;21.10;99.90;;;;;;4895711;29;20472;-74
2022/08/05 16:01:17;;;;;;;3.50;3.40;;;21.00;99.90;;;;;;4895482;29;20887;-75
2022/08/05 16:03:44;;;;;;;4.03;3.83;;;21.00;99.90;;;;;;4893191;29;20967;-75
2022/08/05 16:06:11;;;;;;;3.30;3.27;;;21.00;99.90;;;;;;4894041;29;20476;-75
2022/08/05 16:08:38;;;;;;;3.77;3.67;;;21.20;99.90;;;;;;4893426;29;20469;-74
2022/08/05 16:11:05;;;;;;;3.40;3.30;;;21.40;99.90;;;;;;4894582;29;20493;-74
2022/08/05 16:13:33;;;;;;;4.40;4.30;;;21.40;99.90;;;;;;4893201;29;20476;-74
2022/08/05 16:16:00;;;;;;;6.50;4.07;;;21.50;99.90;;;;;;4894853;29;20477;-73
2022/08/05 16:18:27;;;;;;;3.87;3.77;;;21.60;99.90;;;;;;4894969;29;20492;-73
2022/08/05 16:20:53;;;;;;;3.40;3.30;;;21.70;99.90;;;;;;4889666;29;20830;-74
2022/08/05 16:23:20;;;;;;;4.67;3.40;;;21.60;99.90;;;;;;4892813;29;20893;-73
2022/08/05 16:25:47;;;;;;;3.23;3.13;;;21.50;99.90;;;;;;4891312;29;20483;-78
2022/08/05 16:28:13;;;;;;;3.30;3.20;;;21.50;99.90;;;;;;4888750;29;20487;-75
2022/08/05 16:30:41;;;;;;;3.37;3.03;;;21.50;99.90;;;;;;4894928;29;20491;-73
2022/08/05 16:33:08;;;;;;;4.83;4.00;;;21.40;99.90;;;;;;4893904;29;20472;-74
2022/08/05 16:35:35;;;;;;;3.63;3.33;;;21.30;99.90;;;;;;4895310;29;20579;-76
2022/08/05 16:38:02;;;;;;;3.80;3.50;;;21.20;99.90;;;;;;4891777;29;20508;-75
2022/08/05 16:40:28;;;;;;;4.07;3.87;;;21.10;99.90;;;;;;4895172;29;20502;-74
2022/08/05 16:42:55;;;;;;;4.33;4.20;;;20.90;99.90;;;;;;4891826;29;20476;-73
2022/08/05 16:45:21;;;;;;;6.30;4.93;;;20.90;99.90;;;;;;4895332;29;20478;-74
2022/08/05 16:47:49;;;;;;;4.60;4.40;;;20.80;99.90;;;;;;4893347;29;20472;-73
2022/08/05 16:50:16;;;;;;;3.10;3.10;;;20.70;99.90;;;;;;4886261;29;20527;-73
2022/08/05 16:52:43;;;;;;;2.83;2.73;;;20.60;99.90;;;;;;4888302;29;20482;-72
2022/08/05 16:55:10;;;;;;;2.40;2.30;;;20.60;99.90;;;;;;4893970;29;20480;-75
2022/08/05 16:57:36;;;;;;;2.30;2.20;;;20.50;99.90;;;;;;4890192;29;20479;-73
2022/08/05 17:00:05;;;;;;;4.63;2.87;;;20.30;99.90;;;;;;4893013;29;20499;-73